Observation data for Childress on 09/13/2017      Previous  Date  Next       Current Mesonet Observations  Soil Data  Daily Summary Page  Observations in Plain Language
KCXS 130500Z 14008KT 20/11 A2989 RMK A01 T02010109  RH  057%=      5-min Rain = 0
KCXS 130505Z 14007KT 20/11 A2989 RMK A01 T02000109  RH  058%=      5-min Rain = 0
KCXS 130510Z 14007KT 20/11 A2989 RMK A01 T01980109  RH  059%=      5-min Rain = 0
KCXS 130515Z 14008KT 20/11 A2989 RMK A01 T01970109  RH  059%=      5-min Rain = 0
KCXS 130520Z 14008KT 20/11 A2989 RMK A01 T01970109  RH  059%=      5-min Rain = 0
KCXS 130525Z 13008KT 20/11 A2989 RMK A01 T01990108  RH  058%=      5-min Rain = 0
KCXS 130530Z 13008KT 20/11 A2989 RMK A01 T02000108  RH  057%=      5-min Rain = 0
KCXS 130535Z 14007KT 20/11 A2989 RMK A01 T02010108  RH  057%=      5-min Rain = 0
KCXS 130540Z 14007KT 20/11 A2989 RMK A01 T02000108  RH  057%=      5-min Rain = 0
KCXS 130545Z 15007KT 20/11 A2989 RMK A01 T01980108  RH  058%=      5-min Rain = 0
KCXS 130550Z 14007KT 20/11 A2989 RMK A01 T01960108  RH  059%=      5-min Rain = 0
KCXS 130555Z 13008KT 20/11 A2989 RMK A01 T01950108  RH  059%=      5-min Rain = 0
KCXS 130600Z 13008KT 20/11 A2988 RMK A01 T01950109  RH  059%=      5-min Rain = 0
KCXS 130605Z 13008KT 19/11 A2988 RMK A01 T01920110  RH  061%=      5-min Rain = 0
KCXS 130610Z 13008KT 19/11 A2988 RMK A01 T01890110  RH  062%=      5-min Rain = 0
KCXS 130615Z 14005KT 19/11 A2989 RMK A01 T01890109  RH  062%=      5-min Rain = 0
KCXS 130620Z 26005KT 19/11 A2989 RMK A01 T01890108  RH  061%=      5-min Rain = 0
KCXS 130625Z 25004KT 19/11 A2989 RMK A01 T01880107  RH  062%=      5-min Rain = 0
KCXS 130630Z 21002KT 19/11 A2989 RMK A01 T01880107  RH  061%=      5-min Rain = 0
KCXS 130635Z 21002KT 19/11 A2989 RMK A01 T01910106  RH  060%=      5-min Rain = 0
KCXS 130640Z 26004KT 20/11 A299 RMK A01 T01950106  RH  058%=      5-min Rain = 0
KCXS 130645Z 27003KT 19/11 A2989 RMK A01 T01920106  RH  059%=      5-min Rain = 0
KCXS 130650Z 27003KT 19/11 A299 RMK A01 T01910106  RH  059%=      5-min Rain = 0
KCXS 130655Z 26003KT 19/11 A2989 RMK A01 T01900105  RH  060%=      5-min Rain = 0
KCXS 130700Z 23002KT 19/11 A2989 RMK A01 T01910105  RH  059%=      5-min Rain = 0
KCXS 130705Z 26002KT 19/11 A2989 RMK A01 T01930105  RH  058%=      5-min Rain = 0
KCXS 130710Z 18002KT 19/10 A2989 RMK A01 T01930104  RH  058%=      5-min Rain = 0
KCXS 130715Z 18002KT 19/10 A2989 RMK A01 T01930103  RH  058%=      5-min Rain = 0
KCXS 130720Z 19003KT 20/10 A2989 RMK A01 T01960102  RH  056%=      5-min Rain = 0
KCXS 130725Z 16003KT 20/10 A2989 RMK A01 T01980102  RH  056%=      5-min Rain = 0
KCXS 130730Z 16004KT 20/10 A2989 RMK A01 T01980102  RH  056%=      5-min Rain = 0
KCXS 130735Z 15005KT 20/10 A2989 RMK A01 T01950103  RH  057%=      5-min Rain = 0
KCXS 130740Z 15006KT 19/10 A2989 RMK A01 T01900103  RH  059%=      5-min Rain = 0
KCXS 130745Z 15005KT 19/10 A2989 RMK A01 T01870103  RH  060%=      5-min Rain = 0
KCXS 130750Z 15005KT 19/10 A2989 RMK A01 T01880102  RH  060%=      5-min Rain = 0
KCXS 130755Z 15004KT 19/10 A2989 RMK A01 T01890102  RH  059%=      5-min Rain = 0
KCXS 130800Z 15004KT 19/10 A2989 RMK A01 T01900102  RH  058%=      5-min Rain = 0
KCXS 130805Z 16003KT 19/10 A2989 RMK A01 T01910101  RH  058%=      5-min Rain = 0
KCXS 130810Z 16002KT 19/10 A2989 RMK A01 T01900101  RH  058%=      5-min Rain = 0
KCXS 130815Z 16003KT 19/10 A2989 RMK A01 T01890101  RH  058%=      5-min Rain = 0
KCXS 130820Z 14003KT 19/10 A2989 RMK A01 T01910100  RH  057%=      5-min Rain = 0
KCXS 130825Z 13005KT 19/10 A2989 RMK A01 T01910100  RH  058%=      5-min Rain = 0
KCXS 130830Z 13005KT 19/10 A2989 RMK A01 T01880100  RH  058%=      5-min Rain = 0
KCXS 130835Z 13005KT 19/10 A2988 RMK A01 T01880100  RH  058%=      5-min Rain = 0
KCXS 130840Z 14004KT 19/10 A2989 RMK A01 T01880100  RH  059%=      5-min Rain = 0
KCXS 130845Z 15004KT 19/10 A2988 RMK A01 T01870100  RH  059%=      5-min Rain = 0
KCXS 130850Z 14005KT 19/10 A2988 RMK A01 T01870100  RH  059%=      5-min Rain = 0
KCXS 130855Z 14005KT 19/10 A2988 RMK A01 T01860100  RH  059%=      5-min Rain = 0
KCXS 130900Z 14005KT 18/10 A2988 RMK A01 T01840100  RH  060%=      5-min Rain = 0
KCXS 130905Z 14006KT 18/10 A2988 RMK A01 T01830100  RH  060%=      5-min Rain = 0
KCXS 130910Z 13006KT 18/10 A2988 RMK A01 T01820100  RH  061%=      5-min Rain = 0
KCXS 130915Z 13006KT 18/10 A2988 RMK A01 T01830100  RH  060%=      5-min Rain = 0
KCXS 130920Z 13006KT 18/10 A2988 RMK A01 T01820100  RH  061%=      5-min Rain = 0
KCXS 130925Z 13006KT 18/10 A2988 RMK A01 T01810100  RH  061%=      5-min Rain = 0
KCXS 130930Z 13006KT 18/10 A2988 RMK A01 T01770100  RH  063%=      5-min Rain = 0
KCXS 130935Z 13006KT 18/10 A2988 RMK A01 T01760100  RH  063%=      5-min Rain = 0
KCXS 130940Z 13005KT 18/10 A2988 RMK A01 T01770099  RH  063%=      5-min Rain = 0
KCXS 130945Z 13005KT 18/10 A2989 RMK A01 T01780099  RH  062%=      5-min Rain = 0
KCXS 130950Z 13005KT 18/10 A2989 RMK A01 T01790099  RH  061%=      5-min Rain = 0
KCXS 130955Z 14004KT 18/10 A2989 RMK A01 T01800099  RH  061%=      5-min Rain = 0
KCXS 131000Z 27003KT 17/10 A2989 RMK A01 T01740100  RH  064%=      5-min Rain = 0
KCXS 131005Z 26003KT 16/10 A2989 RMK A01 T01620101  RH  069%=      5-min Rain = 0
KCXS 131010Z 20002KT 16/10 A2989 RMK A01 T01590102  RH  071%=      5-min Rain = 0
KCXS 131015Z 16003KT 16/10 A2989 RMK A01 T01640101  RH  068%=      5-min Rain = 0
KCXS 131020Z 20003KT 17/10 A2989 RMK A01 T01710100  RH  065%=      5-min Rain = 0
KCXS 131025Z 25003KT 17/10 A2989 RMK A01 T01700103  RH  067%=      5-min Rain = 0
KCXS 131030Z 19003KT 17/10 A2989 RMK A01 T01670102  RH  067%=      5-min Rain = 0
KCXS 131035Z 18003KT 17/10 A2989 RMK A01 T01720099  RH  064%=      5-min Rain = 0
KCXS 131040Z 18004KT 18/10 A2989 RMK A01 T01790097  RH  061%=      5-min Rain = 0
KCXS 131045Z 18003KT 18/10 A2988 RMK A01 T01820097  RH  060%=      5-min Rain = 0
KCXS 131050Z 18003KT 18/10 A2988 RMK A01 T01830097  RH  059%=      5-min Rain = 0
KCXS 131055Z 18003KT 18/10 A2988 RMK A01 T01830098  RH  059%=      5-min Rain = 0
KCXS 131100Z 16003KT 18/10 A2988 RMK A01 T01810097  RH  060%=      5-min Rain = 0
KCXS 131105Z 17003KT 18/10 A2988 RMK A01 T01820097  RH  059%=      5-min Rain = 0
KCXS 131110Z 18004KT 18/10 A2988 RMK A01 T01830097  RH  059%=      5-min Rain = 0
KCXS 131115Z 18004KT 18/10 A2988 RMK A01 T01840097  RH  059%=      5-min Rain = 0
KCXS 131120Z 17004KT 18/10 A2988 RMK A01 T01830097  RH  059%=      5-min Rain = 0
KCXS 131125Z 17004KT 18/10 A2988 RMK A01 T01820097  RH  059%=      5-min Rain = 0
KCXS 131130Z 15004KT 18/10 A2988 RMK A01 T01800097  RH  060%=      5-min Rain = 0
KCXS 131135Z 14004KT 18/10 A2988 RMK A01 T01780097  RH  061%=      5-min Rain = 0
KCXS 131140Z 13004KT 18/10 A2988 RMK A01 T01760098  RH  062%=      5-min Rain = 0
KCXS 131145Z 13005KT 18/10 A2988 RMK A01 T01750098  RH  063%=      5-min Rain = 0
KCXS 131150Z 13005KT 17/10 A2988 RMK A01 T01740098  RH  063%=      5-min Rain = 0
KCXS 131155Z 13005KT 17/10 A2988 RMK A01 T01730098  RH  063%=      5-min Rain = 0
KCXS 131200Z 13004KT 17/10 A2988 RMK A01 T01730098  RH  063%=      5-min Rain = 0
KCXS 131205Z 13003KT 17/10 A2988 RMK A01 T01730098  RH  063%=      5-min Rain = 0
KCXS 131210Z 12003KT 17/10 A2988 RMK A01 T01730098  RH  063%=      5-min Rain = 0
KCXS 131215Z 11004KT 17/10 A2988 RMK A01 T01720098  RH  064%=      5-min Rain = 0
KCXS 131220Z 10005KT 17/10 A2988 RMK A01 T01690099  RH  065%=      5-min Rain = 0
KCXS 131225Z 10005KT 17/10 A2988 RMK A01 T01660100  RH  067%=      5-min Rain = 0
KCXS 131230Z 09006KT 16/10 A2988 RMK A01 T01620102  RH  070%=      5-min Rain = 0
KCXS 131235Z 09006KT 16/10 A2988 RMK A01 T01610103  RH  071%=      5-min Rain = 0
KCXS 131240Z 09006KT 16/10 A2988 RMK A01 T01610103  RH  071%=      5-min Rain = 0
KCXS 131245Z 09007KT 16/10 A2988 RMK A01 T01620104  RH  071%=      5-min Rain = 0
KCXS 131250Z 08006KT 16/11 A2989 RMK A01 T01630105  RH  071%=      5-min Rain = 0
KCXS 131255Z 09006KT 16/11 A2989 RMK A01 T01640106  RH  071%=      5-min Rain = 0
KCXS 131300Z 09006KT 17/11 A2989 RMK A01 T01660107  RH  070%=      5-min Rain = 0
KCXS 131305Z 09005KT 17/11 A2989 RMK A01 T01700107  RH  069%=      5-min Rain = 0
KCXS 131310Z 10005KT 17/11 A2989 RMK A01 T01730108  RH  068%=      5-min Rain = 0
KCXS 131315Z 10004KT 18/11 A299 RMK A01 T01770108  RH  066%=      5-min Rain = 0
KCXS 131320Z 11002KT 18/11 A299 RMK A01 T01820109  RH  064%=      5-min Rain = 0
KCXS 131325Z 12002KT 19/11 A299 RMK A01 T01860109  RH  063%=      5-min Rain = 0
KCXS 131330Z 12002KT 19/11 A299 RMK A01 T01890110  RH  062%=      5-min Rain = 0
KCXS 131335Z 13003KT 19/11 A299 RMK A01 T01920110  RH  061%=      5-min Rain = 0
KCXS 131340Z 12004KT 19/11 A299 RMK A01 T01940108  RH  059%=      5-min Rain = 0
KCXS 131345Z 13004KT 20/11 A299 RMK A01 T01960107  RH  058%=      5-min Rain = 0
KCXS 131350Z 14003KT 20/11 A299 RMK A01 T01980107  RH  058%=      5-min Rain = 0
KCXS 131355Z 15003KT 20/11 A299 RMK A01 T02000106  RH  056%=      5-min Rain = 0
KCXS 131400Z 15002KT 20/11 A299 RMK A01 T02020107  RH  056%=      5-min Rain = 0
KCXS 131405Z 16003KT 21/11 A2991 RMK A01 T02060106  RH  054%=      5-min Rain = 0
KCXS 131410Z 15003KT 21/11 A2991 RMK A01 T02080107  RH  054%=      5-min Rain = 0
KCXS 131415Z 15003KT 21/11 A2991 RMK A01 T02110106  RH  053%=      5-min Rain = 0
KCXS 131420Z 15003KT 21/10 A2991 RMK A01 T02140104  RH  051%=      5-min Rain = 0
KCXS 131425Z 17003KT 22/10 A2991 RMK A01 T02170104  RH  050%=      5-min Rain = 0
KCXS 131430Z 17003KT 22/10 A2991 RMK A01 T02190103  RH  049%=      5-min Rain = 0
KCXS 131435Z 17004KT 22/10 A2991 RMK A01 T02220102  RH  048%=      5-min Rain = 0
KCXS 131440Z 17004KT 23/10 A2991 RMK A01 T02250104  RH  048%=      5-min Rain = 0
KCXS 131445Z 18004KT 23/10 A2991 RMK A01 T02270104  RH  047%=      5-min Rain = 0
KCXS 131450Z 17003KT 23/11 A2991 RMK A01 T02310107  RH  047%=      5-min Rain = 0
KCXS 131455Z 19004KT 23/10 A2991 RMK A01 T02340104  RH  046%=      5-min Rain = 0
KCXS 131500Z 17006KT 24/10 A2991 RMK A01 T02350104  RH  045%=      5-min Rain = 0
KCXS 131505Z 17005KT 24/11 A2991 RMK A01 T02390105  RH  044%=      5-min Rain = 0
KCXS 131510Z 17006KT 24/10 A2991 RMK A01 T02440103  RH  042%=      5-min Rain = 0
KCXS 131515Z 18006KT 25/10 A2991 RMK A01 T02480099  RH  040%=      5-min Rain = 0
KCXS 131520Z 18008KT 25/10 A2991 RMK A01 T02470096  RH  040%=      5-min Rain = 0
KCXS 131525Z 19006KT 25/10 A2991 RMK A01 T02490098  RH  040%=      5-min Rain = 0
KCXS 131530Z 19007KT 25/10 A2991 RMK A01 T02510096  RH  039%=      5-min Rain = 0
KCXS 131535Z 18007KT 25/10 A2991 RMK A01 T02530096  RH  038%=      5-min Rain = 0
KCXS 131540Z 18007KT 26/10 A2991 RMK A01 T02570096  RH  037%=      5-min Rain = 0
KCXS 131545Z 18006KT 26/10 A2991 RMK A01 T02600095  RH  036%=      5-min Rain = 0
KCXS 131550Z 18007KT 26/09 A2991 RMK A01 T02620093  RH  036%=      5-min Rain = 0
KCXS 131555Z 18007KT 26/09 A2991 RMK A01 T02630092  RH  035%=      5-min Rain = 0
KCXS 131600Z 17007KT 26/09 A2991 RMK A01 T02640090  RH  034%=      5-min Rain = 0
KCXS 131605Z 18007KT 27/09 A2991 RMK A01 T02660089  RH  034%=      5-min Rain = 0
KCXS 131610Z 19008KT 27/09 A2991 RMK A01 T02680088  RH  033%=      5-min Rain = 0
KCXS 131615Z 20006KT 27/09 A299 RMK A01 T02690089  RH  033%=      5-min Rain = 0
KCXS 131620Z 17006KT 28/09 A299 RMK A01 T02750090  RH  032%=      5-min Rain = 0
KCXS 131625Z 16006KT 28/09 A299 RMK A01 T02760088  RH  032%=      5-min Rain = 0
KCXS 131630Z 16006KT 28/09 A299 RMK A01 T02750088  RH  032%=      5-min Rain = 0
KCXS 131635Z 17006KT 28/09 A299 RMK A01 T02750089  RH  032%=      5-min Rain = 0
KCXS 131640Z 14005KT 28/09 A299 RMK A01 T02780088  RH  031%=      5-min Rain = 0
KCXS 131645Z 16006KT 28/09 A299 RMK A01 T02770090  RH  032%=      5-min Rain = 0
KCXS 131650Z 15005KT 28/09 A299 RMK A01 T02790090  RH  031%=      5-min Rain = 0
KCXS 131655Z 17006KT 28/09 A299 RMK A01 T02790091  RH  032%=      5-min Rain = 0
KCXS 131700Z 18005G10KT 28/09 A2989 RMK A01 T02820093  RH  031%=      5-min Rain = 0
KCXS 131705Z 16005G10KT 28/09 A2989 RMK A01 T02830094  RH  032%=      5-min Rain = 0
KCXS 131710Z 16006KT 29/10 A2989 RMK A01 T02870095  RH  031%=      5-min Rain = 0
KCXS 131715Z 17004KT 29/09 A2989 RMK A01 T02870093  RH  031%=      5-min Rain = 0
KCXS 131720Z 14006KT 29/09 A2989 RMK A01 T02890093  RH  030%=      5-min Rain = 0
KCXS 131725Z 17005KT 29/09 A2988 RMK A01 T02890091  RH  030%=      5-min Rain = 0
KCXS 131730Z 20005G10KT 29/09 A2988 RMK A01 T02890093  RH  030%=      5-min Rain = 0
KCXS 131735Z 18005KT 29/10 A2988 RMK A01 T02920095  RH  030%=      5-min Rain = 0
KCXS 131740Z 18004KT 30/10 A2988 RMK A01 T03010095  RH  029%=      5-min Rain = 0
KCXS 131745Z 15005KT 30/10 A2988 RMK A01 T02970095  RH  029%=      5-min Rain = 0
KCXS 131750Z 15005KT 30/10 A2988 RMK A01 T02950095  RH  030%=      5-min Rain = 0
KCXS 131755Z 19006KT 30/10 A2988 RMK A01 T02950095  RH  030%=      5-min Rain = 0
KCXS 131800Z 20006KT 30/10 A2987 RMK A01 T02970095  RH  029%=      5-min Rain = 0
KCXS 131805Z 19005KT 30/10 A2987 RMK A01 T02980097  RH  030%=      5-min Rain = 0
KCXS 131810Z 20005G10KT 30/10 A2987 RMK A01 T02990098  RH  030%=      5-min Rain = 0
KCXS 131815Z 18005KT 30/10 A2986 RMK A01 T03030097  RH  029%=      5-min Rain = 0
KCXS 131820Z 17005KT 31/10 A2986 RMK A01 T03050098  RH  029%=      5-min Rain = 0
KCXS 131825Z 16004KT 31/10 A2986 RMK A01 T03050098  RH  028%=      5-min Rain = 0
KCXS 131830Z 22004KT 30/10 A2985 RMK A01 T03040097  RH  029%=      5-min Rain = 0
KCXS 131835Z 17005KT 31/10 A2985 RMK A01 T03100099  RH  028%=      5-min Rain = 0
KCXS 131840Z 19006G11KT 32/10 A2985 RMK A01 T03160098  RH  027%=      5-min Rain = 0
KCXS 131845Z 20006KT 31/10 A2985 RMK A01 T03140096  RH  027%=      5-min Rain = 0
KCXS 131850Z 18003KT 31/09 A2985 RMK A01 T03110094  RH  027%=      5-min Rain = 0
KCXS 131855Z 15004KT 32/10 A2984 RMK A01 T03150096  RH  027%=      5-min Rain = 0
KCXS 131900Z 17007KT 32/10 A2984 RMK A01 T03180097  RH  026%=      5-min Rain = 0
KCXS 131905Z 16007KT 32/10 A2984 RMK A01 T03190095  RH  026%=      5-min Rain = 0
KCXS 131910Z 18004KT 32/10 A2984 RMK A01 T03190095  RH  026%=      5-min Rain = 0
KCXS 131915Z 13005KT 32/10 A2984 RMK A01 T03190095  RH  026%=      5-min Rain = 0
KCXS 131920Z 17004KT 32/09 A2983 RMK A01 T03210092  RH  025%=      5-min Rain = 0
KCXS 131925Z 16006KT 32/09 A2983 RMK A01 T03220094  RH  025%=      5-min Rain = 0
KCXS 131930Z 18003KT 32/09 A2983 RMK A01 T03220094  RH  025%=      5-min Rain = 0
KCXS 131935Z 18005KT 32/10 A2983 RMK A01 T03230096  RH  026%=      5-min Rain = 0
KCXS 131940Z 20005KT 32/10 A2983 RMK A01 T03240095  RH  025%=      5-min Rain = 0
KCXS 131945Z 20003KT 33/09 A2983 RMK A01 T03260094  RH  025%=      5-min Rain = 0
KCXS 131950Z 15006KT 33/10 A2982 RMK A01 T03290096  RH  025%=      5-min Rain = 0
KCXS 131955Z 16004KT 33/09 A2982 RMK A01 T03290093  RH  024%=      5-min Rain = 0
KCXS 132000Z 13004KT 33/10 A2982 RMK A01 T03270095  RH  025%=      5-min Rain = 0
KCXS 132005Z 16008KT 33/10 A2982 RMK A01 T03300096  RH  025%=      5-min Rain = 0
KCXS 132010Z 17007KT 33/09 A2981 RMK A01 T03310094  RH  024%=      5-min Rain = 0
KCXS 132015Z 17005KT 33/10 A2981 RMK A01 T03300095  RH  024%=      5-min Rain = 0
KCXS 132020Z 12003KT 33/09 A2981 RMK A01 T03310093  RH  024%=      5-min Rain = 0
KCXS 132025Z 16002G7KT 33/09 A2981 RMK A01 T03310093  RH  024%=      5-min Rain = 0
KCXS 132030Z 16004G10KT 33/10 A2981 RMK A01 T03340096  RH  024%=      5-min Rain = 0
KCXS 132035Z 18006G11KT 34/10 A2981 RMK A01 T03350097  RH  024%=      5-min Rain = 0
KCXS 132040Z 22006KT 34/10 A2981 RMK A01 T03350096  RH  024%=      5-min Rain = 0
KCXS 132045Z 19006KT 34/10 A2981 RMK A01 T03360097  RH  024%=      5-min Rain = 0
KCXS 132050Z 17005KT 33/10 A298 RMK A01 T03330095  RH  024%=      5-min Rain = 0
KCXS 132055Z 14005G11KT 33/10 A298 RMK A01 T03340096  RH  024%=      5-min Rain = 0
KCXS 132100Z 10007KT 34/10 A298 RMK A01 T03350098  RH  024%=      5-min Rain = 0
KCXS 132105Z 11008KT 34/10 A298 RMK A01 T03370098  RH  024%=      5-min Rain = 0
KCXS 132110Z 10005KT 34/10 A298 RMK A01 T03350099  RH  024%=      5-min Rain = 0
KCXS 132115Z 15008G13KT 34/10 A298 RMK A01 T03370098  RH  024%=      5-min Rain = 0
KCXS 132120Z 15006KT 34/10 A2979 RMK A01 T03370098  RH  024%=      5-min Rain = 0
KCXS 132125Z 12004KT 34/10 A2979 RMK A01 T03360097  RH  024%=      5-min Rain = 0
KCXS 132130Z 12005G10KT 34/10 A2979 RMK A01 T03390102  RH  024%=      5-min Rain = 0
KCXS 132135Z 12009KT 34/10 A2979 RMK A01 T03400101  RH  024%=      5-min Rain = 0
KCXS 132140Z 12006G11KT 34/10 A2979 RMK A01 T03380101  RH  024%=      5-min Rain = 0
KCXS 132145Z 14007G12KT 34/10 A2979 RMK A01 T03380101  RH  024%=      5-min Rain = 0
KCXS 132150Z 13008KT 34/10 A2979 RMK A01 T03380100  RH  024%=      5-min Rain = 0
KCXS 132155Z 12009KT 34/10 A2979 RMK A01 T03360100  RH  024%=      5-min Rain = 0
KCXS 132200Z 13007KT 34/10 A2978 RMK A01 T03360100  RH  024%=      5-min Rain = 0
KCXS 132205Z 09007KT 34/10 A2978 RMK A01 T03370101  RH  024%=      5-min Rain = 0
KCXS 132210Z 12008KT 34/10 A2978 RMK A01 T03370101  RH  024%=      5-min Rain = 0
KCXS 132215Z 10007KT 33/10 A2978 RMK A01 T03340099  RH  024%=      5-min Rain = 0
KCXS 132220Z 12008KT 33/10 A2978 RMK A01 T03340099  RH  024%=      5-min Rain = 0
KCXS 132225Z 15007KT 34/10 A2978 RMK A01 T03350099  RH  024%=      5-min Rain = 0
KCXS 132230Z 15007KT 34/10 A2978 RMK A01 T03370100  RH  024%=      5-min Rain = 0
KCXS 132235Z 14006G13KT 34/10 A2978 RMK A01 T03360098  RH  024%=      5-min Rain = 0
KCXS 132240Z 14007KT 34/10 A2978 RMK A01 T03360101  RH  025%=      5-min Rain = 0
KCXS 132245Z 10007KT 33/10 A2978 RMK A01 T03340101  RH  025%=      5-min Rain = 0
KCXS 132250Z 09009G14KT 33/10 A2978 RMK A01 T03320101  RH  025%=      5-min Rain = 0
KCXS 132255Z 13009KT 33/10 A2978 RMK A01 T03330101  RH  025%=      5-min Rain = 0
KCXS 132300Z 11007KT 33/10 A2978 RMK A01 T03320101  RH  025%=      5-min Rain = 0
KCXS 132305Z 12009KT 33/10 A2978 RMK A01 T03310100  RH  025%=      5-min Rain = 0
KCXS 132310Z 12010KT 33/10 A2978 RMK A01 T03300101  RH  025%=      5-min Rain = 0
KCXS 132315Z 12009KT 33/10 A2978 RMK A01 T03290100  RH  025%=      5-min Rain = 0
KCXS 132320Z 12008KT 33/10 A2978 RMK A01 T03280100  RH  025%=      5-min Rain = 0
KCXS 132325Z 12009KT 33/10 A2978 RMK A01 T03260101  RH  026%=      5-min Rain = 0
KCXS 132330Z 12008KT 33/10 A2978 RMK A01 T03250102  RH  026%=      5-min Rain = 0
KCXS 132335Z 13009KT 32/10 A2978 RMK A01 T03240100  RH  026%=      5-min Rain = 0
KCXS 132340Z 13007KT 32/10 A2978 RMK A01 T03230103  RH  027%=      5-min Rain = 0
KCXS 132345Z 12009KT 32/10 A2978 RMK A01 T03210099  RH  026%=      5-min Rain = 0
KCXS 132350Z 12007KT 32/10 A2978 RMK A01 T03190102  RH  027%=      5-min Rain = 0
KCXS 132355Z 12008KT 32/10 A2978 RMK A01 T03160103  RH  028%=      5-min Rain = 0
KCXS 140000Z 12010KT 31/10 A2978 RMK A01 T03140100  RH  028%=      5-min Rain = 0
KCXS 140005Z 12009KT 31/10 A2978 RMK A01 T03120101  RH  028%=      5-min Rain = 0
KCXS 140010Z 12009KT 31/10 A2978 RMK A01 T03100100  RH  028%=      5-min Rain = 0
KCXS 140015Z 12009KT 31/10 A2978 RMK A01 T03060100  RH  029%=      5-min Rain = 0
KCXS 140020Z 12009KT 30/10 A2978 RMK A01 T03030101  RH  030%=      5-min Rain = 0
KCXS 140025Z 12009KT 30/10 A2978 RMK A01 T03000101  RH  030%=      5-min Rain = 0
KCXS 140030Z 12009KT 30/10 A2978 RMK A01 T02970100  RH  031%=      5-min Rain = 0
KCXS 140035Z 12009KT 29/10 A2978 RMK A01 T02920100  RH  031%=      5-min Rain = 0
KCXS 140040Z 12009KT 29/10 A2978 RMK A01 T02900100  RH  032%=      5-min Rain = 0
KCXS 140045Z 12009KT 29/10 A2978 RMK A01 T02860100  RH  032%=      5-min Rain = 0
KCXS 140050Z 12008KT 28/10 A2978 RMK A01 T02820100  RH  033%=      5-min Rain = 0
KCXS 140055Z 11007KT 28/10 A2978 RMK A01 T02760101  RH  034%=      5-min Rain = 0
KCXS 140100Z 11008KT 27/10 A2978 RMK A01 T02720103  RH  036%=      5-min Rain = 0
KCXS 140105Z 11009KT 27/11 A2978 RMK A01 T02680107  RH  038%=      5-min Rain = 0
KCXS 140110Z 12009KT 27/11 A2978 RMK A01 T02650108  RH  039%=      5-min Rain = 0
KCXS 140115Z 12009KT 26/11 A2978 RMK A01 T02630108  RH  039%=      5-min Rain = 0
KCXS 140120Z 12009KT 26/11 A2978 RMK A01 T02610107  RH  039%=      5-min Rain = 0
KCXS 140125Z 12009KT 26/11 A2978 RMK A01 T02590107  RH  040%=      5-min Rain = 0
KCXS 140130Z 12009KT 26/11 A2978 RMK A01 T02570106  RH  040%=      5-min Rain = 0
KCXS 140135Z 12009KT 26/11 A2978 RMK A01 T02550106  RH  040%=      5-min Rain = 0
KCXS 140140Z 12009KT 25/11 A2978 RMK A01 T02540106  RH  041%=      5-min Rain = 0
KCXS 140145Z 12009KT 25/11 A2979 RMK A01 T02530105  RH  041%=      5-min Rain = 0
KCXS 140150Z 12009KT 25/11 A2979 RMK A01 T02520105  RH  041%=      5-min Rain = 0
KCXS 140155Z 12009KT 25/11 A2979 RMK A01 T02490106  RH  042%=      5-min Rain = 0
KCXS 140200Z 12009KT 25/11 A2979 RMK A01 T02460107  RH  043%=      5-min Rain = 0
KCXS 140205Z 12010KT 25/11 A2979 RMK A01 T02450107  RH  043%=      5-min Rain = 0
KCXS 140210Z 12010KT 24/11 A2979 RMK A01 T02420108  RH  044%=      5-min Rain = 0
KCXS 140215Z 12009KT 24/11 A298 RMK A01 T02400108  RH  045%=      5-min Rain = 0
KCXS 140220Z 12010KT 24/11 A298 RMK A01 T02390107  RH  045%=      5-min Rain = 0
KCXS 140225Z 12010KT 24/11 A298 RMK A01 T02400106  RH  044%=      5-min Rain = 0
KCXS 140230Z 12010KT 24/11 A298 RMK A01 T02390105  RH  044%=      5-min Rain = 0
KCXS 140235Z 12010KT 24/10 A298 RMK A01 T02370104  RH  044%=      5-min Rain = 0
KCXS 140240Z 13010KT 24/10 A298 RMK A01 T02370104  RH  044%=      5-min Rain = 0
KCXS 140245Z 13009KT 24/10 A298 RMK A01 T02360103  RH  045%=      5-min Rain = 0
KCXS 140250Z 13009KT 24/10 A298 RMK A01 T02350103  RH  045%=      5-min Rain = 0
KCXS 140255Z 13009KT 24/10 A298 RMK A01 T02350102  RH  044%=      5-min Rain = 0
KCXS 140300Z 13009KT 23/10 A2981 RMK A01 T02340102  RH  045%=      5-min Rain = 0
KCXS 140305Z 12009KT 23/10 A2981 RMK A01 T02340102  RH  045%=      5-min Rain = 0
KCXS 140310Z 12009KT 23/10 A2981 RMK A01 T02320103  RH  046%=      5-min Rain = 0
KCXS 140315Z 12009KT 23/10 A2981 RMK A01 T02290104  RH  047%=      5-min Rain = 0
KCXS 140320Z 12010KT 23/11 A2981 RMK A01 T02270106  RH  048%=      5-min Rain = 0
KCXS 140325Z 12010KT 22/11 A2981 RMK A01 T02240108  RH  049%=      5-min Rain = 0
KCXS 140330Z 12010KT 22/11 A2981 RMK A01 T02220108  RH  050%=      5-min Rain = 0
KCXS 140335Z 12010KT 22/11 A2981 RMK A01 T02200108  RH  051%=      5-min Rain = 0
KCXS 140340Z 12010KT 22/11 A2981 RMK A01 T02210106  RH  050%=      5-min Rain = 0
KCXS 140345Z 12010KT 22/11 A2981 RMK A01 T02220105  RH  049%=      5-min Rain = 0
KCXS 140350Z 13009KT 22/11 A2981 RMK A01 T02220105  RH  049%=      5-min Rain = 0
KCXS 140355Z 12010KT 22/11 A2981 RMK A01 T02200105  RH  050%=      5-min Rain = 0
KCXS 140400Z 13010KT 22/11 A2981 RMK A01 T02180105  RH  050%=      5-min Rain = 0
KCXS 140405Z 13009KT 22/10 A2981 RMK A01 T02160104  RH  051%=      5-min Rain = 0
KCXS 140410Z 13009KT 22/10 A2981 RMK A01 T02160103  RH  050%=      5-min Rain = 0
KCXS 140415Z 14009KT 22/10 A2981 RMK A01 T02170101  RH  049%=      5-min Rain = 0
KCXS 140420Z 14008KT 22/10 A2981 RMK A01 T02160100  RH  049%=      5-min Rain = 0
KCXS 140425Z 14008KT 22/10 A2982 RMK A01 T02150100  RH  050%=      5-min Rain = 0
KCXS 140430Z 13008KT 21/10 A2982 RMK A01 T02130100  RH  050%=      5-min Rain = 0
KCXS 140435Z 13008KT 21/10 A2982 RMK A01 T02100101  RH  051%=      5-min Rain = 0
KCXS 140440Z 13008KT 21/10 A2982 RMK A01 T02060102  RH  053%=      5-min Rain = 0
KCXS 140445Z 13008KT 20/10 A2982 RMK A01 T02030102  RH  054%=      5-min Rain = 0
KCXS 140450Z 13008KT 20/10 A2982 RMK A01 T02020101  RH  054%=      5-min Rain = 0
KCXS 140455Z 13008KT 20/10 A2982 RMK A01 T02010101  RH  054%=      5-min Rain = 0

Page generated in 0.0228 seconds.